PAYA/YAK METAR and TAF weather

Enter ICAO airport designator
Station Type Date Time Source
PAYA METAR 2023/01/29 18:53 UTC NOAA

PAYA 291853Z AUTO 00000KT 10SM OVC018 M03/M03 A3065 RMK AO2 SLP378 T10281033 TSNO $


Station Type Date Time Source
PAYA Decoded METAR 2023/01/29 18:53 UTC NOAA

YAKUTAT AIRPORT, AK, United States (PAYA) 59-30N 139-40W 9M
Jan 29, 2023 - 01:53 PM EST / 2023.01.29 1853 UTC
Wind: Calm:0
Visibility: 10 mile(s):0
Sky conditions: overcast
Temperature: 27.0 F (-2.8 C)
Dew Point: 26.1 F (-3.3 C)
Relative Humidity: 96%
Pressure (altimeter): 30.65 in. Hg (1037 hPa)
ob: PAYA 291853Z AUTO 00000KT 10SM OVC018 M03/M03 A3065 RMK AO2 SLP378 T10281033 TSNO
cycle: 19

Station Type Date Time Source
PAYA TAF 2023/01/29 18:40 UTC NOAA

TAF PAYA 291738Z 2918/3018 VRB03KT P6SM SCT015
TEMPO 2918/2922 BKN015
FM292300 08005KT P6SM VCSH BKN015 OVC040
FM300600 09003KT 5SM -SN BKN025 OVC035
FM301000 10002KT 3SM -SN BKN015 OVC025
AMD LTD TO CLD VIS AND WIND

Example: see airport list